Time;durP1;ratioP1;P1;durP2;ratioP2;P2;SDS_P1;SDS_P2;PMS_P1;PMS_P2;Temp;Humidity;BMP_temperature;BMP_pressure;BME280_temperature;BME280_humidity;BME280_pressure;Samples;Min_cycle;Max_cycle;Signal;HPM_P1;HPM_P2
2024/03/08 00:00:34;;;;;;;41.72;21.35;;;5.30;99.90;;;;;;4826447;29;20026;-89
2024/03/08 00:03:01;;;;;;;35.42;19.80;;;5.30;99.90;;;;;;4827135;29;20037;-88
2024/03/08 00:05:28;;;;;;;40.53;20.55;;;5.30;99.90;;;;;;4826741;29;20495;-89
2024/03/08 00:07:54;;;;;;;36.00;18.92;;;5.30;99.90;;;;;;4826284;29;20022;-88
2024/03/08 00:10:20;;;;;;;42.08;20.17;;;5.30;99.90;;;;;;4826652;29;20083;-89
2024/03/08 00:12:46;;;;;;;37.00;19.75;;;5.40;99.90;;;;;;4825963;29;20056;-90
2024/03/08 00:15:14;;;;;;;38.95;19.45;;;5.30;99.90;;;;;;4839300;29;20535;-88
2024/03/08 00:17:40;;;;;;;37.53;19.98;;;5.30;99.90;;;;;;4844352;29;20046;-89
2024/03/08 00:20:08;;;;;;;41.45;21.13;;;5.20;99.90;;;;;;4844420;29;20074;-88
2024/03/08 00:22:34;;;;;;;37.47;20.33;;;5.30;99.90;;;;;;4844150;29;20030;-89
2024/03/08 00:25:00;;;;;;;36.92;19.02;;;5.30;99.90;;;;;;4845270;29;20026;-90
2024/03/08 00:27:25;;;;;;;32.75;19.25;;;5.30;99.90;;;;;;4844351;29;20524;-89
2024/03/08 00:29:51;;;;;;;35.72;19.23;;;5.30;99.90;;;;;;4845501;29;20525;-89
2024/03/08 00:32:17;;;;;;;36.78;19.17;;;5.20;99.90;;;;;;4846540;29;20479;-88
2024/03/08 00:34:42;;;;;;;42.15;19.30;;;5.20;99.90;;;;;;4843991;29;20076;-88
2024/03/08 00:37:08;;;;;;;36.30;19.42;;;5.20;99.90;;;;;;4836676;29;20045;-88
2024/03/08 00:39:34;;;;;;;41.67;20.95;;;5.20;99.90;;;;;;4844122;29;20033;-89
2024/03/08 00:41:59;;;;;;;37.78;21.48;;;5.10;99.90;;;;;;4841381;29;20058;-89
2024/03/08 00:44:25;;;;;;;34.80;19.75;;;5.10;99.90;;;;;;4840765;29;20045;-89
2024/03/08 00:46:51;;;;;;;32.45;19.45;;;5.10;99.90;;;;;;4836632;29;20137;-89
2024/03/08 00:49:16;;;;;;;35.03;19.23;;;5.10;99.90;;;;;;4826121;29;20532;-89
2024/03/08 00:51:43;;;;;;;40.15;19.67;;;5.10;99.90;;;;;;4825998;29;20080;-88
2024/03/08 00:54:08;;;;;;;34.67;19.08;;;5.10;99.90;;;;;;4825409;29;20056;-89
2024/03/08 00:56:35;;;;;;;36.13;20.25;;;5.00;99.90;;;;;;4838816;29;20045;-88
2024/03/08 00:59:02;;;;;;;39.35;19.63;;;5.00;99.90;;;;;;4846291;29;20033;-88
2024/03/08 01:01:28;;;;;;;41.85;20.70;;;5.10;99.90;;;;;;4850043;29;20098;-91
2024/03/08 01:03:53;;;;;;;33.70;18.25;;;5.00;99.90;;;;;;4843593;29;20021;-90
2024/03/08 01:06:19;;;;;;;34.15;20.60;;;5.00;99.90;;;;;;4843493;29;20037;-92
2024/03/08 01:08:45;;;;;;;32.65;19.50;;;5.00;99.90;;;;;;4843684;29;20034;-89
2024/03/08 01:11:13;;;;;;;33.58;19.85;;;5.00;99.90;;;;;;4836129;29;20037;-88
2024/03/08 01:13:39;;;;;;;36.88;20.05;;;5.00;99.90;;;;;;4825698;29;20039;-90
2024/03/08 01:16:05;;;;;;;38.67;20.15;;;5.00;99.90;;;;;;4825248;29;20053;-90
2024/03/08 01:18:31;;;;;;;35.03;18.65;;;5.00;99.90;;;;;;4832245;29;20034;-90
2024/03/08 01:20:57;;;;;;;35.35;18.67;;;5.00;99.90;;;;;;4842522;29;20050;-89
2024/03/08 01:23:23;;;;;;;30.35;18.00;;;5.00;99.90;;;;;;4843786;29;20034;-89
2024/03/08 01:25:51;;;;;;;32.45;18.05;;;5.00;99.90;;;;;;4842991;29;20022;-89
2024/03/08 01:28:17;;;;;;;38.05;18.50;;;4.90;99.90;;;;;;4843162;29;20475;-88
2024/03/08 01:30:42;;;;;;;32.42;18.73;;;5.00;99.90;;;;;;4843132;29;20072;-89
2024/03/08 01:33:08;;;;;;;34.10;20.08;;;4.90;99.90;;;;;;4834643;29;20030;-88
2024/03/08 01:35:34;;;;;;;30.73;18.40;;;5.00;99.90;;;;;;4825285;29;20031;-90
2024/03/08 01:37:59;;;;;;;35.00;18.85;;;5.00;99.90;;;;;;4837619;29;20045;-89
2024/03/08 01:40:25;;;;;;;39.15;19.13;;;4.90;99.90;;;;;;4844550;29;20039;-89
2024/03/08 01:42:51;;;;;;;33.63;19.10;;;4.90;99.90;;;;;;4841774;29;20058;-89
2024/03/08 01:45:16;;;;;;;43.05;19.15;;;5.50;99.90;;;;;;4846735;29;20034;-89
2024/03/08 01:47:42;;;;;;;34.92;18.05;;;4.90;99.90;;;;;;4852637;29;20112;-87
2024/03/08 01:50:08;;;;;;;31.65;18.23;;;4.90;99.90;;;;;;4847530;29;20030;-88
2024/03/08 01:52:34;;;;;;;37.30;19.60;;;4.80;99.90;;;;;;4849727;29;20026;-88
2024/03/08 01:55:03;;;;;;;36.65;17.58;;;4.80;99.90;;;;;;4848747;29;20085;-88
2024/03/08 01:57:33;;;;;;;29.80;17.27;;;4.90;99.90;;;;;;4840378;29;20037;-87
2024/03/08 02:00:03;;;;;;;38.57;20.10;;;4.80;99.90;;;;;;4843007;29;20501;-89
2024/03/08 02:02:31;;;;;;;41.40;19.80;;;4.80;99.90;;;;;;4842882;29;20290;-88
2024/03/08 02:04:57;;;;;;;37.45;19.75;;;4.80;99.90;;;;;;4842622;29;20495;-87
2024/03/08 02:07:22;;;;;;;32.97;18.70;;;4.80;99.90;;;;;;4849288;29;20048;-88
2024/03/08 02:09:48;;;;;;;34.92;19.63;;;4.70;99.90;;;;;;4846878;29;20141;-91
2024/03/08 02:12:14;;;;;;;35.78;19.58;;;4.70;99.90;;;;;;4845368;29;20113;-90
2024/03/08 02:14:39;;;;;;;31.67;18.80;;;4.60;99.90;;;;;;4846668;29;20029;-90
2024/03/08 02:17:05;;;;;;;34.15;18.38;;;4.60;99.90;;;;;;4845342;29;20430;-91
2024/03/08 02:19:32;;;;;;;34.83;18.92;;;4.60;99.90;;;;;;4846475;29;20030;-91
2024/03/08 02:21:59;;;;;;;32.80;19.30;;;4.50;99.90;;;;;;4830975;29;20038;-90
2024/03/08 02:24:25;;;;;;;32.92;18.80;;;4.40;99.90;;;;;;4833999;29;20026;-88
2024/03/08 02:26:51;;;;;;;30.25;18.92;;;4.40;99.90;;;;;;4845928;29;20122;-87
2024/03/08 02:29:17;;;;;;;35.28;18.83;;;4.40;99.90;;;;;;4846426;29;20059;-88
2024/03/08 02:31:42;;;;;;;34.58;19.02;;;4.40;99.90;;;;;;4846238;29;20030;-88
2024/03/08 02:34:09;;;;;;;33.55;18.92;;;4.40;99.90;;;;;;4846054;29;20033;-88
2024/03/08 02:36:35;;;;;;;32.35;19.55;;;4.40;99.90;;;;;;4845915;29;20495;-87
2024/03/08 02:39:02;;;;;;;32.13;18.70;;;4.40;99.90;;;;;;4844059;29;20090;-87
2024/03/08 02:41:28;;;;;;;33.78;17.35;;;4.50;99.90;;;;;;4845024;29;20060;-88
2024/03/08 02:43:55;;;;;;;27.65;17.23;;;4.40;99.90;;;;;;4846044;29;20026;-88
2024/03/08 02:46:20;;;;;;;33.33;18.60;;;4.50;99.90;;;;;;4846033;29;20034;-89
2024/03/08 02:48:46;;;;;;;34.05;19.20;;;4.50;99.90;;;;;;4838223;29;20065;-88
2024/03/08 02:51:13;;;;;;;33.33;18.10;;;4.50;99.90;;;;;;4831755;29;20030;-88
2024/03/08 02:53:39;;;;;;;28.17;17.73;;;4.50;99.90;;;;;;4844609;29;20030;-88
2024/03/08 02:56:08;;;;;;;30.33;18.23;;;4.50;99.90;;;;;;4843659;29;20057;-89
2024/03/08 02:58:33;;;;;;;33.15;18.77;;;4.40;99.90;;;;;;4845773;29;20060;-88
2024/03/08 03:00:59;;;;;;;37.22;18.92;;;4.40;99.90;;;;;;4852441;29;20025;-90
2024/03/08 03:03:26;;;;;;;29.38;18.52;;;4.40;99.90;;;;;;4863651;29;20061;-89
2024/03/08 03:05:55;;;;;;;31.27;19.50;;;4.30;99.90;;;;;;4844820;29;20030;-89
2024/03/08 03:08:21;;;;;;;34.88;20.60;;;4.30;99.90;;;;;;4845004;29;20041;-89
2024/03/08 03:10:46;;;;;;;30.92;17.88;;;4.20;99.90;;;;;;4833198;29;20038;-89
2024/03/08 03:13:12;;;;;;;27.60;17.70;;;4.30;99.90;;;;;;4835472;29;20036;-89
2024/03/08 03:15:37;;;;;;;33.17;19.33;;;4.20;99.90;;;;;;4838301;29;20034;-90
2024/03/08 03:18:03;;;;;;;34.22;19.08;;;4.30;99.90;;;;;;4826680;29;20098;-89
2024/03/08 03:20:40;;;;;;;30.45;18.38;;;4.30;99.90;;;;;;4826961;29;20037;-89
2024/03/08 03:23:08;;;;;;;34.33;19.00;;;4.30;99.90;;;;;;4827233;29;20088;-88
2024/03/08 03:25:35;;;;;;;33.58;19.35;;;4.20;99.90;;;;;;4829790;29;20034;-90
2024/03/08 03:28:01;;;;;;;35.95;19.63;;;4.10;99.90;;;;;;4826878;29;20513;-90
2024/03/08 03:30:30;;;;;;;37.13;19.67;;;4.10;99.90;;;;;;4827061;29;20444;-89
2024/03/08 03:32:58;;;;;;;36.58;21.08;;;4.10;99.90;;;;;;4826854;29;20038;-89
2024/03/08 03:35:24;;;;;;;34.40;20.38;;;4.00;99.90;;;;;;4827812;29;20058;-90
2024/03/08 03:38:08;;;;;;;30.73;18.23;;;4.10;99.90;;;;;;4827813;29;20479;-90
2024/03/08 03:40:34;;;;;;;33.15;19.10;;;4.10;99.90;;;;;;4827067;29;20050;-89
2024/03/08 03:43:00;;;;;;;32.65;19.67;;;4.00;99.90;;;;;;4835940;29;20105;-90
2024/03/08 03:45:26;;;;;;;34.33;20.40;;;4.00;99.90;;;;;;4844460;29;20050;-90
2024/03/08 03:47:54;;;;;;;32.08;19.98;;;3.90;99.90;;;;;;4844300;29;20033;-89
2024/03/08 03:50:21;;;;;;;34.25;19.50;;;3.90;99.90;;;;;;4845663;29;20049;-90
2024/03/08 03:52:47;;;;;;;38.42;21.17;;;3.90;99.90;;;;;;4845547;29;20026;-90
2024/03/08 03:55:13;;;;;;;32.83;20.15;;;3.90;99.90;;;;;;4837331;29;20038;-90
2024/03/08 03:57:39;;;;;;;41.67;19.65;;;3.90;99.90;;;;;;4826271;29;20046;-90
2024/03/08 04:00:06;;;;;;;32.20;19.17;;;4.00;99.90;;;;;;4833868;29;20053;-91
2024/03/08 04:02:31;;;;;;;34.47;20.13;;;3.90;99.90;;;;;;4845678;29;20038;-90
2024/03/08 04:04:57;;;;;;;34.42;19.73;;;4.00;99.90;;;;;;4843530;29;20035;-91
2024/03/08 04:07:22;;;;;;;35.58;19.80;;;4.00;99.90;;;;;;4863849;29;20033;-90
2024/03/08 04:09:49;;;;;;;32.88;20.35;;;3.90;99.90;;;;;;4840964;29;20547;-90
2024/03/08 04:12:15;;;;;;;30.98;19.08;;;3.80;99.90;;;;;;4843985;29;20051;-90
2024/03/08 04:14:42;;;;;;;32.92;19.73;;;3.80;99.90;;;;;;4844473;29;20034;-91
2024/03/08 04:17:11;;;;;;;35.50;19.30;;;3.80;99.90;;;;;;4844331;29;20042;-90
2024/03/08 04:19:38;;;;;;;33.90;20.50;;;3.80;99.90;;;;;;4844488;29;20029;-89
2024/03/08 04:22:03;;;;;;;31.50;20.13;;;3.80;99.90;;;;;;4844673;29;20034;-89
2024/03/08 04:24:30;;;;;;;33.90;21.23;;;3.80;99.90;;;;;;4844218;29;20086;-90
2024/03/08 04:26:56;;;;;;;30.88;19.67;;;3.70;99.90;;;;;;4843357;29;20121;-89
2024/03/08 04:29:22;;;;;;;32.60;21.02;;;3.80;99.90;;;;;;4842838;29;20069;-90
2024/03/08 04:31:47;;;;;;;33.90;19.92;;;3.70;99.90;;;;;;4841382;29;20029;-90
2024/03/08 04:34:13;;;;;;;34.88;20.73;;;3.70;99.90;;;;;;4825748;29;20479;-89
2024/03/08 04:36:38;;;;;;;38.60;22.67;;;3.70;99.90;;;;;;4825763;29;20031;-89
2024/03/08 04:39:04;;;;;;;37.95;20.85;;;3.60;99.90;;;;;;4825755;29;20117;-89
2024/03/08 04:41:30;;;;;;;34.80;21.92;;;3.60;99.90;;;;;;4826254;29;20063;-89
2024/03/08 04:43:57;;;;;;;39.28;21.88;;;3.60;99.90;;;;;;4825735;29;20607;-89
2024/03/08 04:46:23;;;;;;;36.97;21.40;;;3.60;99.90;;;;;;4827332;29;20468;-90
2024/03/08 04:48:49;;;;;;;31.17;20.38;;;3.60;99.90;;;;;;4843166;29;20049;-91
2024/03/08 04:51:15;;;;;;;30.88;19.83;;;3.70;99.90;;;;;;4845402;29;20041;-89
2024/03/08 04:53:41;;;;;;;31.73;20.15;;;3.60;99.90;;;;;;4843615;29;20041;-90
2024/03/08 04:56:07;;;;;;;34.42;19.77;;;3.60;99.90;;;;;;4840523;29;20034;-88
2024/03/08 04:58:35;;;;;;;31.33;20.02;;;3.60;99.90;;;;;;4841071;29;20030;-88
2024/03/08 05:01:01;;;;;;;31.90;20.35;;;3.60;99.90;;;;;;4837896;29;20420;-88
2024/03/08 05:03:27;;;;;;;29.83;20.35;;;3.50;99.90;;;;;;4845235;29;20033;-89
2024/03/08 05:05:53;;;;;;;39.88;20.88;;;3.50;99.90;;;;;;4843655;29;20037;-91
2024/03/08 05:08:19;;;;;;;34.45;21.10;;;3.50;99.90;;;;;;4843754;29;20033;-90
2024/03/08 05:10:45;;;;;;;40.50;22.77;;;3.50;99.90;;;;;;4840047;29;20432;-88
2024/03/08 05:13:10;;;;;;;37.40;21.95;;;3.50;99.90;;;;;;4824649;29;20060;-87
2024/03/08 05:15:36;;;;;;;30.92;19.92;;;3.50;99.90;;;;;;4841566;29;20498;-89
2024/03/08 05:18:02;;;;;;;32.08;21.27;;;4.20;99.90;;;;;;4843083;29;20086;-89
2024/03/08 05:20:28;;;;;;;35.60;20.75;;;3.40;99.90;;;;;;4842535;29;20135;-89
2024/03/08 05:22:53;;;;;;;34.95;21.65;;;3.50;99.90;;;;;;4824588;29;20030;-89
2024/03/08 05:25:19;;;;;;;32.00;20.20;;;3.50;99.90;;;;;;4825813;29;20065;-87
2024/03/08 05:27:44;;;;;;;36.80;20.45;;;3.60;99.90;;;;;;4841885;29;20025;-88
2024/03/08 05:30:14;;;;;;;34.08;22.15;;;3.60;99.90;;;;;;4842910;29;20074;-86
2024/03/08 05:32:44;;;;;;;36.78;21.58;;;3.50;99.90;;;;;;4843142;29;20033;-87
2024/03/08 05:35:16;;;;;;;37.67;22.40;;;3.40;99.90;;;;;;4842504;29;20093;-88
2024/03/08 05:37:45;;;;;;;36.72;22.35;;;3.50;99.90;;;;;;4842044;29;20046;-88
2024/03/08 05:40:10;;;;;;;34.50;22.02;;;3.50;99.90;;;;;;4842269;29;20064;-89
2024/03/08 05:42:36;;;;;;;32.63;21.45;;;3.40;99.90;;;;;;4842270;29;20077;-90
2024/03/08 05:45:09;;;;;;;33.15;20.73;;;3.40;99.90;;;;;;4840017;29;20066;-89
2024/03/08 05:47:35;;;;;;;36.47;22.65;;;3.40;99.90;;;;;;4843850;29;20090;-91
2024/03/08 05:50:01;;;;;;;33.03;21.13;;;3.40;99.90;;;;;;4827671;29;20139;-89
2024/03/08 05:52:27;;;;;;;34.53;22.70;;;3.30;99.90;;;;;;4825116;29;20030;-89
2024/03/08 05:54:52;;;;;;;41.30;23.73;;;3.30;99.90;;;;;;4829820;29;20022;-90
2024/03/08 05:57:18;;;;;;;34.45;21.48;;;3.30;99.90;;;;;;4843229;29;20048;-90
2024/03/08 05:59:44;;;;;;;36.95;22.25;;;3.30;99.90;;;;;;4842588;29;20083;-90
2024/03/08 06:02:10;;;;;;;36.65;21.67;;;3.30;99.90;;;;;;4842026;29;20061;-89
2024/03/08 06:04:35;;;;;;;34.60;22.20;;;3.30;99.90;;;;;;4841694;29;20348;-89
2024/03/08 06:07:03;;;;;;;36.58;21.83;;;3.30;99.90;;;;;;4842918;29;20372;-91
2024/03/08 06:09:28;;;;;;;36.47;22.98;;;3.30;99.90;;;;;;4840087;29;20030;-88
2024/03/08 06:11:54;;;;;;;38.13;22.52;;;3.30;99.90;;;;;;4841983;29;20452;-87
2024/03/08 06:14:20;;;;;;;34.28;22.33;;;3.30;99.90;;;;;;4842264;29;20379;-87
2024/03/08 06:16:46;;;;;;;35.08;22.08;;;3.30;99.90;;;;;;4840579;29;20030;-87
2024/03/08 06:19:13;;;;;;;37.25;22.02;;;3.30;99.90;;;;;;4840380;29;20034;-87
2024/03/08 06:21:39;;;;;;;31.77;21.13;;;3.30;99.90;;;;;;4841128;29;20030;-88
2024/03/08 06:24:05;;;;;;;36.47;22.50;;;3.30;99.90;;;;;;4831323;29;20095;-87
2024/03/08 06:26:30;;;;;;;36.08;22.45;;;3.30;99.90;;;;;;4840173;29;20026;-87
2024/03/08 06:28:56;;;;;;;37.75;22.73;;;3.30;99.90;;;;;;4838564;29;20114;-88
2024/03/08 06:31:22;;;;;;;35.97;21.20;;;3.30;99.90;;;;;;4841290;29;20041;-87
2024/03/08 06:33:51;;;;;;;38.40;22.42;;;3.40;99.90;;;;;;4841372;29;20065;-87
2024/03/08 06:36:18;;;;;;;36.83;22.13;;;3.40;99.90;;;;;;4842013;29;20065;-87
2024/03/08 06:38:46;;;;;;;36.95;22.48;;;3.40;99.90;;;;;;4842276;29;20042;-88
2024/03/08 06:41:17;;;;;;;36.00;22.73;;;3.50;99.90;;;;;;4832853;29;20483;-88
2024/03/08 06:43:44;;;;;;;34.47;20.85;;;3.40;99.90;;;;;;4828507;29;20085;-88
2024/03/08 06:46:11;;;;;;;38.20;22.95;;;3.40;99.90;;;;;;4839652;29;20030;-87
2024/03/08 06:48:39;;;;;;;39.10;22.40;;;3.40;99.90;;;;;;4841255;29;20030;-89
2024/03/08 06:51:05;;;;;;;37.38;23.38;;;3.40;99.90;;;;;;4842691;29;20039;-88
2024/03/08 06:53:31;;;;;;;37.15;22.10;;;3.40;99.90;;;;;;4844203;29;20038;-87
2024/03/08 06:55:57;;;;;;;33.08;21.15;;;3.40;99.90;;;;;;4845457;29;20040;-88
2024/03/08 06:58:23;;;;;;;38.20;22.20;;;3.50;99.90;;;;;;4845294;29;20038;-88
2024/03/08 07:00:52;;;;;;;39.00;21.73;;;3.50;99.90;;;;;;4843774;29;20040;-88
2024/03/08 07:03:18;;;;;;;38.67;23.17;;;3.50;99.90;;;;;;4841234;29;20041;-87
2024/03/08 07:05:43;;;;;;;36.58;22.65;;;3.50;99.90;;;;;;4844548;29;20062;-88
2024/03/08 07:08:09;;;;;;;33.90;20.92;;;3.50;99.90;;;;;;4845472;29;20060;-88
2024/03/08 07:10:36;;;;;;;37.47;21.58;;;3.60;99.90;;;;;;4845817;29;20050;-88
2024/03/08 07:13:02;;;;;;;33.22;20.90;;;3.60;99.90;;;;;;4845512;29;20038;-87
2024/03/08 07:15:28;;;;;;;31.95;21.08;;;3.60;99.90;;;;;;4844996;29;20056;-87
2024/03/08 07:17:54;;;;;;;36.88;22.35;;;3.60;99.90;;;;;;4844855;29;20034;-89
2024/03/08 07:20:21;;;;;;;40.05;22.75;;;3.60;99.90;;;;;;4845280;29;20101;-86
2024/03/08 07:22:47;;;;;;;33.50;22.17;;;3.70;99.90;;;;;;4839848;29;20037;-87
2024/03/08 07:25:22;;;;;;;37.25;22.10;;;3.70;99.90;;;;;;4830437;29;20105;-87
2024/03/08 07:27:52;;;;;;;39.97;22.60;;;3.70;99.90;;;;;;4826959;29;20102;-87
2024/03/08 07:33:02;;;;;;;34.30;21.65;;;3.90;99.90;;;;;;4825816;29;20114;-83
2024/03/08 07:35:29;;;;;;;36.30;21.90;;;3.90;99.90;;;;;;4825470;29;20109;-89
2024/03/08 07:37:55;;;;;;;35.85;23.25;;;3.90;99.90;;;;;;4825918;29;20098;-84
2024/03/08 07:40:21;;;;;;;43.47;22.75;;;3.90;99.90;;;;;;4825992;29;20242;-87
2024/03/08 07:42:47;;;;;;;39.83;22.80;;;4.00;99.90;;;;;;4825401;29;20050;-86
2024/03/08 07:45:12;;;;;;;37.33;22.15;;;4.00;99.90;;;;;;4838883;29;20030;-88
2024/03/08 07:47:38;;;;;;;34.88;21.75;;;4.00;99.90;;;;;;4843324;29;20077;-88
2024/03/08 07:50:04;;;;;;;37.17;22.58;;;4.00;99.90;;;;;;4843094;29;20419;-84
2024/03/08 07:52:30;;;;;;;38.28;22.92;;;4.10;99.90;;;;;;4842387;29;20062;-85
2024/03/08 07:54:55;;;;;;;38.97;21.80;;;4.70;99.90;;;;;;4838455;29;20034;-85
2024/03/08 07:57:21;;;;;;;44.35;21.90;;;4.10;99.90;;;;;;4842858;29;20054;-84
2024/03/08 07:59:46;;;;;;;34.80;22.33;;;4.20;99.90;;;;;;4843514;29;20514;-84
2024/03/08 08:02:12;;;;;;;33.08;20.85;;;4.20;99.90;;;;;;4838893;29;20739;-85
2024/03/08 08:04:38;;;;;;;35.95;21.48;;;4.20;99.90;;;;;;4838586;29;20486;-84
2024/03/08 08:07:04;;;;;;;45.47;21.58;;;4.20;99.90;;;;;;4837708;29;20491;-83
2024/03/08 08:09:34;;;;;;;35.58;22.08;;;4.20;99.90;;;;;;4839833;29;20054;-81
2024/03/08 08:12:02;;;;;;;34.20;21.10;;;4.20;99.90;;;;;;4840121;29;20121;-84
2024/03/08 08:14:29;;;;;;;36.58;22.10;;;4.30;99.90;;;;;;4832833;29;20080;-83
2024/03/08 08:16:55;;;;;;;37.03;21.65;;;4.30;99.90;;;;;;4839866;29;20038;-84
2024/03/08 08:19:21;;;;;;;33.75;21.85;;;4.30;99.90;;;;;;4837525;29;20048;-85
2024/03/08 08:21:47;;;;;;;36.75;22.27;;;4.40;99.90;;;;;;4840192;29;20042;-86
2024/03/08 08:24:12;;;;;;;38.80;23.88;;;4.40;99.90;;;;;;4840358;29;20497;-87
2024/03/08 08:26:38;;;;;;;36.53;21.58;;;4.40;99.90;;;;;;4841078;29;20023;-86
2024/03/08 08:29:06;;;;;;;34.92;22.08;;;4.40;99.90;;;;;;4842218;29;20049;-85
2024/03/08 08:31:32;;;;;;;34.25;21.40;;;4.50;99.90;;;;;;4841168;29;20045;-85
2024/03/08 08:34:00;;;;;;;38.40;22.35;;;4.60;99.90;;;;;;4841776;29;20041;-85
2024/03/08 08:36:26;;;;;;;36.67;23.65;;;4.60;99.90;;;;;;4840372;29;20561;-87
2024/03/08 08:38:56;;;;;;;36.83;21.70;;;4.70;99.90;;;;;;4830906;29;20116;-88
2024/03/08 08:41:22;;;;;;;37.10;22.67;;;4.80;99.90;;;;;;4842999;29;20139;-85
2024/03/08 08:43:49;;;;;;;38.08;21.63;;;4.80;99.90;;;;;;4843159;29;20112;-86
2024/03/08 08:46:17;;;;;;;36.80;21.63;;;4.90;99.90;;;;;;4842693;29;20029;-86
2024/03/08 08:48:45;;;;;;;38.08;21.63;;;4.90;99.90;;;;;;4841069;29;20065;-85
2024/03/08 08:51:12;;;;;;;34.90;21.52;;;4.90;99.90;;;;;;4834782;29;20034;-84
2024/03/08 08:53:42;;;;;;;35.15;21.58;;;4.90;99.90;;;;;;4824334;29;20031;-84
2024/03/08 08:56:08;;;;;;;;;;;5.00;99.90;;;;;;4832876;29;20048;-87
2024/03/08 08:58:34;;;;;;;33.38;21.50;;;5.00;99.90;;;;;;4842726;29;19917;-87
2024/03/08 09:00:59;;;;;;;35.20;21.25;;;5.10;99.90;;;;;;4842518;29;20026;-87
2024/03/08 09:03:27;;;;;;;35.58;22.23;;;5.10;99.90;;;;;;4843266;29;20041;-87
2024/03/08 09:05:52;;;;;;;35.90;21.52;;;5.20;99.90;;;;;;4840212;29;20065;-86
2024/03/08 09:08:18;;;;;;;43.28;22.42;;;5.30;99.90;;;;;;4843904;29;20069;-87
2024/03/08 09:10:43;;;;;;;35.97;22.02;;;5.20;99.90;;;;;;4842880;29;20077;-87
2024/03/08 09:13:11;;;;;;;41.30;22.27;;;5.30;99.90;;;;;;4841591;29;20112;-88
2024/03/08 09:15:40;;;;;;;35.70;22.02;;;5.30;99.90;;;;;;4841100;29;20041;-87
2024/03/08 09:18:06;;;;;;;41.10;23.95;;;5.30;99.90;;;;;;4843265;29;20093;-87
2024/03/08 09:20:32;;;;;;;40.08;22.35;;;5.60;99.90;;;;;;4843127;29;20030;-88
2024/03/08 09:22:58;;;;;;;38.17;22.52;;;5.50;99.90;;;;;;4841863;29;20034;-85
2024/03/08 09:25:23;;;;;;;38.03;22.63;;;5.50;99.90;;;;;;4837348;29;20046;-95
2024/03/08 09:27:49;;;;;;;40.33;23.25;;;5.50;99.90;;;;;;4826636;29;20117;-84
2024/03/08 09:30:15;;;;;;;31.88;20.50;;;5.60;99.90;;;;;;4823608;29;20075;-84
2024/03/08 09:32:41;;;;;;;34.33;21.15;;;5.60;99.90;;;;;;4828543;29;20069;-84
2024/03/08 09:35:07;;;;;;;37.70;22.77;;;5.70;99.90;;;;;;4842295;29;20475;-84
2024/03/08 09:37:33;;;;;;;34.65;21.65;;;5.80;99.90;;;;;;4841272;29;20041;-85
2024/03/08 09:39:59;;;;;;;35.78;23.40;;;5.90;99.90;;;;;;4841841;29;20029;-85
2024/03/08 09:42:25;;;;;;;38.97;22.75;;;6.00;99.90;;;;;;4842022;29;20166;-87
2024/03/08 09:44:52;;;;;;;41.03;23.63;;;6.00;99.90;;;;;;4840294;29;20037;-85
2024/03/08 09:47:18;;;;;;;40.20;23.42;;;6.00;99.90;;;;;;4842090;29;20062;-87
2024/03/08 09:49:43;;;;;;;35.83;22.15;;;6.10;99.90;;;;;;4841708;29;20368;-87
2024/03/08 09:52:12;;;;;;;37.72;22.70;;;6.10;99.90;;;;;;4839741;29;20054;-85
2024/03/08 09:54:37;;;;;;;36.50;21.92;;;6.10;99.90;;;;;;4839749;29;20048;-87
2024/03/08 09:57:08;;;;;;;37.08;22.67;;;6.20;99.90;;;;;;4839314;29;20487;-87
2024/03/08 10:01:59;;;;;;;33.15;21.58;;;6.30;99.90;;;;;;4843092;29;20069;-88
2024/03/08 10:04:28;;;;;;;35.78;22.15;;;6.20;99.90;;;;;;4842800;29;20341;-87
2024/03/08 10:06:54;;;;;;;35.72;22.08;;;6.30;99.90;;;;;;4824032;29;20065;-88
2024/03/08 10:09:20;;;;;;;36.25;22.27;;;6.40;99.90;;;;;;4824765;29;20031;-88
2024/03/08 10:11:46;;;;;;;35.95;23.48;;;6.40;99.90;;;;;;4829480;29;20507;-92
2024/03/08 10:14:12;;;;;;;36.33;22.80;;;6.50;99.90;;;;;;4837641;29;20026;-91
2024/03/08 10:16:39;;;;;;;32.78;21.85;;;6.50;99.90;;;;;;4841752;29;20069;-91
2024/03/08 10:19:05;;;;;;;36.22;22.83;;;6.50;99.90;;;;;;4841030;29;20066;-91
2024/03/08 10:21:32;;;;;;;34.63;22.45;;;6.60;99.90;;;;;;4846197;29;20038;-90
2024/03/08 10:23:59;;;;;;;35.97;21.25;;;6.70;99.90;;;;;;4844129;29;20062;-92
2024/03/08 10:26:25;;;;;;;39.15;22.48;;;6.70;99.90;;;;;;4843660;29;20034;-92
2024/03/08 10:28:52;;;;;;;38.58;21.95;;;6.80;99.90;;;;;;4845054;29;20029;-88
2024/03/08 10:31:19;;;;;;;34.22;22.00;;;6.90;99.90;;;;;;4840500;29;20125;-91
2024/03/08 10:33:45;;;;;;;33.80;20.60;;;6.90;99.90;;;;;;4850074;29;20030;-91
2024/03/08 10:36:12;;;;;;;35.03;20.63;;;6.90;99.90;;;;;;4841926;29;20092;-88
2024/03/08 10:38:41;;;;;;;46.88;21.52;;;7.00;99.90;;;;;;4844819;29;20065;-91
2024/03/08 10:41:12;;;;;;;32.45;19.55;;;7.00;99.90;;;;;;4845047;29;20060;-90
2024/03/08 10:43:46;;;;;;;37.33;21.23;;;7.10;99.90;;;;;;4847992;29;20162;-94
2024/03/08 10:46:29;;;;;;;35.80;21.27;;;7.20;99.90;;;;;;4844569;29;20034;-91
2024/03/08 10:48:58;;;;;;;37.75;20.08;;;7.20;99.90;;;;;;4847660;29;20041;-92
2024/03/08 10:51:25;;;;;;;29.05;20.27;;;7.30;99.90;;;;;;4846234;29;20454;-90
2024/03/08 10:53:54;;;;;;;33.95;22.23;;;7.40;99.90;;;;;;4845092;29;20064;-86
2024/03/08 10:56:19;;;;;;;30.80;20.33;;;7.40;99.90;;;;;;4843193;29;20041;-84
2024/03/08 10:58:48;;;;;;;32.10;20.55;;;7.50;99.90;;;;;;4840431;29;20365;-90
2024/03/08 11:01:14;;;;;;;29.67;19.88;;;7.50;99.90;;;;;;4843662;29;20102;-86
2024/03/08 11:03:40;;;;;;;31.90;20.17;;;7.60;99.90;;;;;;4841164;29;20054;-86
2024/03/08 11:06:15;;;;;;;32.80;20.20;;;7.70;99.90;;;;;;4844896;29;20022;-87
2024/03/08 11:08:41;;;;;;;30.75;18.75;;;7.70;99.90;;;;;;4843457;29;20078;-87
2024/03/08 11:11:27;;;;;;;34.15;21.33;;;7.80;99.90;;;;;;4844072;29;20042;-89
2024/03/08 11:13:54;;;;;;;29.92;20.85;;;7.90;99.90;;;;;;4845623;29;20112;-87
2024/03/08 11:16:28;;;;;;;30.17;20.55;;;7.90;99.90;;;;;;4845387;29;20034;-89
2024/03/08 11:18:54;;;;;;;35.33;19.90;;;7.90;99.90;;;;;;4845240;29;20040;-90
2024/03/08 11:21:23;;;;;;;30.65;20.27;;;8.00;99.90;;;;;;4838006;29;20074;-89
2024/03/08 11:24:13;;;;;;;33.05;19.83;;;8.00;99.90;;;;;;4844767;29;20033;-90
2024/03/08 11:26:39;;;;;;;30.98;21.23;;;8.10;99.90;;;;;;4827698;29;20109;-91
2024/03/08 11:29:35;;;;;;;25.95;18.38;;;8.10;99.90;;;;;;4827105;29;20026;-88
2024/03/08 11:32:17;;;;;;;27.17;19.02;;;8.20;99.90;;;;;;4826592;29;20079;-88
2024/03/08 11:34:47;;;;;;;31.55;19.25;;;8.20;99.90;;;;;;4826679;29;20039;-88
2024/03/08 11:37:14;;;;;;;28.33;18.88;;;8.30;99.90;;;;;;4826851;29;20095;-89
2024/03/08 11:39:50;;;;;;;27.15;19.00;;;8.40;99.90;;;;;;4826002;29;20046;-88
2024/03/08 11:42:19;;;;;;;27.15;18.40;;;8.50;99.90;;;;;;4826602;29;20054;-87
2024/03/08 11:44:47;;;;;;;32.67;18.98;;;8.50;99.90;;;;;;4836175;29;20086;-88
2024/03/08 11:47:14;;;;;;;30.58;18.73;;;8.60;99.90;;;;;;4838030;29;20041;-88
2024/03/08 11:49:44;;;;;;;27.30;17.50;;;8.70;99.90;;;;;;4847868;29;20120;-91
2024/03/08 11:52:12;;;;;;;27.85;16.48;;;8.70;99.90;;;;;;4845576;29;20040;-88
2024/03/08 11:54:39;;;;;;;29.88;17.95;;;8.70;99.90;;;;;;4844020;29;20427;-82
2024/03/08 11:57:04;;;;;;;26.00;17.05;;;8.80;99.90;;;;;;4841107;29;20550;-84
2024/03/08 11:59:30;;;;;;;31.75;18.20;;;8.80;99.90;;;;;;4842744;29;20022;-83
2024/03/08 12:02:04;;;;;;;30.65;17.15;;;8.90;99.90;;;;;;4836497;29;20041;-83
2024/03/08 12:04:30;;;;;;;28.42;17.48;;;9.00;99.90;;;;;;4842494;29;20065;-86
2024/03/08 12:06:59;;;;;;;27.13;17.42;;;9.00;99.90;;;;;;4831502;29;20048;-84
2024/03/08 12:09:25;;;;;;;28.05;17.95;;;9.00;99.90;;;;;;4842083;29;20038;-87
2024/03/08 12:11:51;;;;;;;25.40;17.45;;;9.10;99.90;;;;;;4840655;29;20078;-86
2024/03/08 12:14:18;;;;;;;23.23;16.63;;;9.10;99.90;;;;;;4844367;29;20030;-89
2024/03/08 12:16:43;;;;;;;27.80;18.20;;;9.10;99.90;;;;;;4843814;29;20030;-87
2024/03/08 12:19:10;;;;;;;23.15;16.80;;;9.20;99.90;;;;;;4843976;29;20041;-87
2024/03/08 12:21:36;;;;;;;30.13;18.45;;;9.30;99.90;;;;;;4846496;29;20047;-89
2024/03/08 12:24:09;;;;;;;25.60;17.92;;;9.40;99.90;;;;;;4843786;29;20124;-88
2024/03/08 12:26:40;;;;;;;24.63;17.70;;;9.50;99.90;;;;;;4836371;29;20030;-86
2024/03/08 12:29:40;;;;;;;27.35;18.90;;;9.50;99.90;;;;;;4841061;29;20042;-86
2024/03/08 12:32:07;;;;;;;27.63;18.75;;;9.60;99.90;;;;;;4840961;29;20113;-86
2024/03/08 12:34:32;;;;;;;24.77;17.95;;;9.70;99.90;;;;;;4843167;29;20551;-83
2024/03/08 12:36:58;;;;;;;27.58;18.55;;;9.70;99.90;;;;;;4837421;29;20140;-86
2024/03/08 12:39:27;;;;;;;25.73;18.23;;;9.80;99.90;;;;;;4843255;29;20371;-85
2024/03/08 12:41:53;;;;;;;24.45;17.67;;;9.90;99.90;;;;;;4823832;29;20183;-85